sensor_id;sensor_type;location;lat;lon;timestamp;pressure;altitude;pressure_sealevel;temperature
60731;BMP280;46580;52.114;11.674;2023-09-18T00:01:02;-19752.13;;;18.69
60731;BMP280;46580;52.114;11.674;2023-09-18T00:03:28;-19749.28;;;18.60
60731;BMP280;46580;52.114;11.674;2023-09-18T00:05:53;-19749.84;;;18.61
60731;BMP280;46580;52.114;11.674;2023-09-18T00:08:19;-19749.28;;;18.60
60731;BMP280;46580;52.114;11.674;2023-09-18T00:10:53;-19750.97;;;18.65
60731;BMP280;46580;52.114;11.674;2023-09-18T00:13:19;-19750.97;;;18.65
60731;BMP280;46580;52.114;11.674;2023-09-18T00:15:44;-19750.69;;;18.64
60731;BMP280;46580;52.114;11.674;2023-09-18T00:18:13;-19750.13;;;18.62
60731;BMP280;46580;52.114;11.674;2023-09-18T00:20:39;-19748.13;;;18.56
60731;BMP280;46580;52.114;11.674;2023-09-18T00:23:06;-19747.41;;;18.53
60731;BMP280;46580;52.114;11.674;2023-09-18T00:25:31;-19748.41;;;18.57
60731;BMP280;46580;52.114;11.674;2023-09-18T00:27:57;-19745.72;;;18.47
60731;BMP280;46580;52.114;11.674;2023-09-18T00:30:23;-19743.56;;;18.40
60731;BMP280;46580;52.114;11.674;2023-09-18T00:32:48;-19743.72;;;18.41
60731;BMP280;46580;52.114;11.674;2023-09-18T00:35:15;-19740.59;;;18.30
60731;BMP280;46580;52.114;11.674;2023-09-18T00:37:41;-19739.03;;;18.24
60731;BMP280;46580;52.114;11.674;2023-09-18T00:40:10;-19737.75;;;18.20
60731;BMP280;46580;52.114;11.674;2023-09-18T00:42:36;-19736.75;;;18.17
60731;BMP280;46580;52.114;11.674;2023-09-18T00:45:01;-19738.03;;;18.21
60731;BMP280;46580;52.114;11.674;2023-09-18T00:47:28;-19739.47;;;18.26
60731;BMP280;46580;52.114;11.674;2023-09-18T00:49:54;-19740.44;;;18.29
60731;BMP280;46580;52.114;11.674;2023-09-18T00:52:21;-19740.59;;;18.30
60731;BMP280;46580;52.114;11.674;2023-09-18T00:54:57;-19739.16;;;18.25
60731;BMP280;46580;52.114;11.674;2023-09-18T00:57:23;-19739.88;;;18.27
60731;BMP280;46580;52.114;11.674;2023-09-18T00:59:48;-19738.59;;;18.23
60731;BMP280;46580;52.114;11.674;2023-09-18T01:02:14;-19736.75;;;18.17
60731;BMP280;46580;52.114;11.674;2023-09-18T01:04:40;-19736.47;;;18.16
60731;BMP280;46580;52.114;11.674;2023-09-18T01:07:09;-19737.19;;;18.18
60731;BMP280;46580;52.114;11.674;2023-09-18T01:09:34;-19736.75;;;18.17
60731;BMP280;46580;52.114;11.674;2023-09-18T01:14:44;-19733.91;;;18.07
60731;BMP280;46580;52.114;11.674;2023-09-18T01:17:12;-19733.91;;;18.07
60731;BMP280;46580;52.114;11.674;2023-09-18T01:19:46;-19732.47;;;18.02
60731;BMP280;46580;52.114;11.674;2023-09-18T01:22:18;-19737.03;;;18.18
60731;BMP280;46580;52.114;11.674;2023-09-18T01:24:45;-19736.19;;;18.15
60731;BMP280;46580;52.114;11.674;2023-09-18T01:27:14;-19738.16;;;18.22
60731;BMP280;46580;52.114;11.674;2023-09-18T01:29:40;-19735.03;;;18.11
60731;BMP280;46580;52.114;11.674;2023-09-18T01:32:05;-19735.19;;;18.11
60731;BMP280;46580;52.114;11.674;2023-09-18T01:34:33;-19737.03;;;18.18
60731;BMP280;46580;52.114;11.674;2023-09-18T01:37:03;-19733.34;;;18.05
60731;BMP280;46580;52.114;11.674;2023-09-18T01:39:30;-19733.19;;;18.05
60731;BMP280;46580;52.114;11.674;2023-09-18T01:41:59;-19733.34;;;18.05
60731;BMP280;46580;52.114;11.674;2023-09-18T01:44:25;-19733.06;;;18.04
60731;BMP280;46580;52.114;11.674;2023-09-18T01:46:50;-19731.63;;;17.99
60731;BMP280;46580;52.114;11.674;2023-09-18T01:49:34;-19727.66;;;17.86
60731;BMP280;46580;52.114;11.674;2023-09-18T01:52:00;-19728.06;;;17.87
60731;BMP280;46580;52.114;11.674;2023-09-18T01:54:26;-19729.06;;;17.90
60731;BMP280;46580;52.114;11.674;2023-09-18T01:56:54;-19728.22;;;17.87
60731;BMP280;46580;52.114;11.674;2023-09-18T01:59:20;-19727.22;;;17.84
60731;BMP280;46580;52.114;11.674;2023-09-18T02:01:45;-19729.34;;;17.91
60731;BMP280;46580;52.114;11.674;2023-09-18T02:04:11;-19731.63;;;17.99
60731;BMP280;46580;52.114;11.674;2023-09-18T02:06:46;-19732.78;;;18.03
60731;BMP280;46580;52.114;11.674;2023-09-18T02:09:12;-19734.19;;;18.08
60731;BMP280;46580;52.114;11.674;2023-09-18T02:11:42;-19730.50;;;17.95
60731;BMP280;46580;52.114;11.674;2023-09-18T02:14:09;-19728.78;;;17.89
60731;BMP280;46580;52.114;11.674;2023-09-18T02:16:38;-19728.94;;;17.90
60731;BMP280;46580;52.114;11.674;2023-09-18T02:19:08;-19727.94;;;17.87
60731;BMP280;46580;52.114;11.674;2023-09-18T02:21:34;-19726.50;;;17.82
60731;BMP280;46580;52.114;11.674;2023-09-18T02:23:59;-19724.50;;;17.75
60731;BMP280;46580;52.114;11.674;2023-09-18T02:26:25;-19726.94;;;17.83
60731;BMP280;46580;52.114;11.674;2023-09-18T02:28:53;-19725.06;;;17.77
60731;BMP280;46580;52.114;11.674;2023-09-18T02:31:19;-19723.09;;;17.70
60731;BMP280;46580;52.114;11.674;2023-09-18T02:33:44;-19721.09;;;17.63
60731;BMP280;46580;52.114;11.674;2023-09-18T02:36:10;-19722.38;;;17.67
60731;BMP280;46580;52.114;11.674;2023-09-18T02:38:36;-19721.38;;;17.64
60731;BMP280;46580;52.114;11.674;2023-09-18T02:41:01;-19720.81;;;17.62
60731;BMP280;46580;52.114;11.674;2023-09-18T02:43:27;-19718.81;;;17.55
60731;BMP280;46580;52.114;11.674;2023-09-18T02:45:52;-19715.97;;;17.46
60731;BMP280;46580;52.114;11.674;2023-09-18T02:48:18;-19714.81;;;17.42
60731;BMP280;46580;52.114;11.674;2023-09-18T02:50:43;-19715.97;;;17.46
60731;BMP280;46580;52.114;11.674;2023-09-18T02:53:20;-19718.25;;;17.53
60731;BMP280;46580;52.114;11.674;2023-09-18T02:55:48;-19714.81;;;17.42
60731;BMP280;46580;52.114;11.674;2023-09-18T02:58:13;-19713.69;;;17.38
60731;BMP280;46580;52.114;11.674;2023-09-18T03:00:42;-19713.53;;;17.37
60731;BMP280;46580;52.114;11.674;2023-09-18T03:03:09;-19713.13;;;17.36
60731;BMP280;46580;52.114;11.674;2023-09-18T03:05:35;-19712.41;;;17.33
60731;BMP280;46580;52.114;11.674;2023-09-18T03:08:00;-19711.13;;;17.29
60731;BMP280;46580;52.114;11.674;2023-09-18T03:10:25;-19711.97;;;17.32
60731;BMP280;46580;52.114;11.674;2023-09-18T03:12:51;-19712.25;;;17.33
60731;BMP280;46580;52.114;11.674;2023-09-18T03:15:16;-19712.56;;;17.34
60731;BMP280;46580;52.114;11.674;2023-09-18T03:17:42;-19712.25;;;17.33
60731;BMP280;46580;52.114;11.674;2023-09-18T03:20:08;-19711.84;;;17.31
60731;BMP280;46580;52.114;11.674;2023-09-18T03:22:34;-19711.97;;;17.32
60731;BMP280;46580;52.114;11.674;2023-09-18T03:24:59;-19713.69;;;17.38
60731;BMP280;46580;52.114;11.674;2023-09-18T03:27:25;-19713.69;;;17.38
60731;BMP280;46580;52.114;11.674;2023-09-18T03:29:54;-19712.25;;;17.33
60731;BMP280;46580;52.114;11.674;2023-09-18T03:32:20;-19711.56;;;17.31
60731;BMP280;46580;52.114;11.674;2023-09-18T03:34:46;-19709.97;;;17.25
60731;BMP280;46580;52.114;11.674;2023-09-18T03:37:11;-19704.72;;;17.07
60731;BMP280;46580;52.114;11.674;2023-09-18T03:39:37;-19706.00;;;17.12
60731;BMP280;46580;52.114;11.674;2023-09-18T03:42:02;-19703.59;;;17.03
60731;BMP280;46580;52.114;11.674;2023-09-18T03:44:28;-19705.16;;;17.09
60731;BMP280;46580;52.114;11.674;2023-09-18T03:46:53;-19703.16;;;17.02
60731;BMP280;46580;52.114;11.674;2023-09-18T03:49:18;-19702.72;;;17.00
60731;BMP280;46580;52.114;11.674;2023-09-18T03:51:44;-19702.28;;;16.99
60731;BMP280;46580;52.114;11.674;2023-09-18T03:54:09;-19706.13;;;17.12
60731;BMP280;46580;52.114;11.674;2023-09-18T03:56:35;-19705.44;;;17.10
60731;BMP280;46580;52.114;11.674;2023-09-18T03:59:00;-19708.56;;;17.20
60731;BMP280;46580;52.114;11.674;2023-09-18T04:01:27;-19712.69;;;17.34
60731;BMP280;46580;52.114;11.674;2023-09-18T04:03:52;-19710.56;;;17.27
60731;BMP280;46580;52.114;11.674;2023-09-18T04:06:20;-19712.97;;;17.35
60731;BMP280;46580;52.114;11.674;2023-09-18T04:08:46;-19715.69;;;17.45
60731;BMP280;46580;52.114;11.674;2023-09-18T04:11:11;-19715.69;;;17.45
60731;BMP280;46580;52.114;11.674;2023-09-18T04:13:37;-19716.81;;;17.49
60731;BMP280;46580;52.114;11.674;2023-09-18T04:16:04;-19717.53;;;17.51
60731;BMP280;46580;52.114;11.674;2023-09-18T04:18:29;-19717.69;;;17.51
60731;BMP280;46580;52.114;11.674;2023-09-18T04:20:54;-19718.38;;;17.54
60731;BMP280;46580;52.114;11.674;2023-09-18T04:23:25;-19716.09;;;17.46
60731;BMP280;46580;52.114;11.674;2023-09-18T04:25:51;-19712.56;;;17.34
60731;BMP280;46580;52.114;11.674;2023-09-18T04:28:19;-19712.84;;;17.35
60731;BMP280;46580;52.114;11.674;2023-09-18T04:30:44;-19711.69;;;17.31
60731;BMP280;46580;52.114;11.674;2023-09-18T04:33:10;-19714.81;;;17.42
60731;BMP280;46580;52.114;11.674;2023-09-18T04:35:37;-19714.53;;;17.41
60731;BMP280;46580;52.114;11.674;2023-09-18T04:38:05;-19716.25;;;17.47
60731;BMP280;46580;52.114;11.674;2023-09-18T04:40:31;-19716.81;;;17.49
60731;BMP280;46580;52.114;11.674;2023-09-18T04:43:00;-19717.09;;;17.49
60731;BMP280;46580;52.114;11.674;2023-09-18T04:45:27;-19718.09;;;17.53
60731;BMP280;46580;52.114;11.674;2023-09-18T04:47:54;-19719.09;;;17.56
60731;BMP280;46580;52.114;11.674;2023-09-18T04:50:20;-19719.09;;;17.56
60731;BMP280;46580;52.114;11.674;2023-09-18T04:52:45;-19719.94;;;17.59
60731;BMP280;46580;52.114;11.674;2023-09-18T04:55:11;-19720.53;;;17.61
60731;BMP280;46580;52.114;11.674;2023-09-18T04:57:37;-19719.94;;;17.59
60731;BMP280;46580;52.114;11.674;2023-09-18T05:00:03;-19720.53;;;17.61
60731;BMP280;46580;52.114;11.674;2023-09-18T05:02:33;-19720.66;;;17.62
60731;BMP280;46580;52.114;11.674;2023-09-18T05:04:59;-19721.38;;;17.64
60731;BMP280;46580;52.114;11.674;2023-09-18T05:07:24;-19721.66;;;17.65
60731;BMP280;46580;52.114;11.674;2023-09-18T05:09:50;-19721.09;;;17.63
60731;BMP280;46580;52.114;11.674;2023-09-18T05:12:15;-19720.94;;;17.63
60731;BMP280;46580;52.114;11.674;2023-09-18T05:14:41;-19721.53;;;17.65
60731;BMP280;46580;52.114;11.674;2023-09-18T05:17:09;-19722.50;;;17.68
60731;BMP280;46580;52.114;11.674;2023-09-18T05:19:36;-19721.94;;;17.66
60731;BMP280;46580;52.114;11.674;2023-09-18T05:22:01;-19724.06;;;17.73
60731;BMP280;46580;52.114;11.674;2023-09-18T05:24:28;-19725.22;;;17.77
60731;BMP280;46580;52.114;11.674;2023-09-18T05:26:54;-19724.50;;;17.75
60731;BMP280;46580;52.114;11.674;2023-09-18T05:29:20;-19725.22;;;17.77
60731;BMP280;46580;52.114;11.674;2023-09-18T05:31:45;-19724.50;;;17.75
60731;BMP280;46580;52.114;11.674;2023-09-18T05:34:11;-19724.94;;;17.76
60731;BMP280;46580;52.114;11.674;2023-09-18T05:36:37;-19726.63;;;17.82
60731;BMP280;46580;52.114;11.674;2023-09-18T05:39:03;-19726.50;;;17.82
60731;BMP280;46580;52.114;11.674;2023-09-18T05:41:28;-19727.06;;;17.84
60731;BMP280;46580;52.114;11.674;2023-09-18T05:43:55;-19726.78;;;17.83
60731;BMP280;46580;52.114;11.674;2023-09-18T05:46:20;-19728.78;;;17.89
60731;BMP280;46580;52.114;11.674;2023-09-18T05:48:46;-19728.78;;;17.89
60731;BMP280;46580;52.114;11.674;2023-09-18T05:51:12;-19731.63;;;17.99
60731;BMP280;46580;52.114;11.674;2023-09-18T05:53:38;-19733.75;;;18.06
60731;BMP280;46580;52.114;11.674;2023-09-18T05:56:06;-19735.03;;;18.11
60731;BMP280;46580;52.114;11.674;2023-09-18T05:58:34;-19737.59;;;18.20
60731;BMP280;46580;52.114;11.674;2023-09-18T06:01:01;-19739.03;;;18.24
60731;BMP280;46580;52.114;11.674;2023-09-18T06:03:27;-19742.72;;;18.37
60731;BMP280;46580;52.114;11.674;2023-09-18T06:05:55;-19745.28;;;18.46
60731;BMP280;46580;52.114;11.674;2023-09-18T06:08:24;-19749.69;;;18.61
60731;BMP280;46580;52.114;11.674;2023-09-18T06:10:51;-19752.69;;;18.71
60731;BMP280;46580;52.114;11.674;2023-09-18T06:13:16;-19755.38;;;18.80
60731;BMP280;46580;52.114;11.674;2023-09-18T06:15:42;-19760.66;;;18.99
60731;BMP280;46580;52.114;11.674;2023-09-18T06:18:07;-19764.34;;;19.11
60731;BMP280;46580;52.114;11.674;2023-09-18T06:20:32;-19765.19;;;19.14
60731;BMP280;46580;52.114;11.674;2023-09-18T06:22:58;-19768.03;;;19.24
60731;BMP280;46580;52.114;11.674;2023-09-18T06:25:23;-19772.75;;;19.40
60731;BMP280;46580;52.114;11.674;2023-09-18T06:27:49;-19774.03;;;19.44
60731;BMP280;46580;52.114;11.674;2023-09-18T06:30:15;-19776.56;;;19.53
60731;BMP280;46580;52.114;11.674;2023-09-18T06:32:40;-19780.84;;;19.68
60731;BMP280;46580;52.114;11.674;2023-09-18T06:35:06;-19782.69;;;19.74
60731;BMP280;46580;52.114;11.674;2023-09-18T06:37:31;-19784.41;;;19.80
60731;BMP280;46580;52.114;11.674;2023-09-18T06:39:57;-19787.66;;;19.91
60731;BMP280;46580;52.114;11.674;2023-09-18T06:42:22;-19789.78;;;19.98
60731;BMP280;46580;52.114;11.674;2023-09-18T06:44:48;-19792.78;;;20.09
60731;BMP280;46580;52.114;11.674;2023-09-18T06:47:13;-19792.78;;;20.09
60731;BMP280;46580;52.114;11.674;2023-09-18T06:49:40;-19795.63;;;20.18
60731;BMP280;46580;52.114;11.674;2023-09-18T06:52:07;-19799.31;;;20.31
60731;BMP280;46580;52.114;11.674;2023-09-18T06:54:33;-19803.44;;;20.45
60731;BMP280;46580;52.114;11.674;2023-09-18T06:56:58;-19805.56;;;20.52
60731;BMP280;46580;52.114;11.674;2023-09-18T06:59:24;-19807.84;;;20.60
60731;BMP280;46580;52.114;11.674;2023-09-18T07:01:49;-19809.84;;;20.67
60731;BMP280;46580;52.114;11.674;2023-09-18T07:04:14;-19814.66;;;20.84
60731;BMP280;46580;52.114;11.674;2023-09-18T07:06:40;-19818.63;;;20.97
60731;BMP280;46580;52.114;11.674;2023-09-18T07:09:05;-19821.75;;;21.08
60731;BMP280;46580;52.114;11.674;2023-09-18T07:11:33;-19822.91;;;21.12
60731;BMP280;46580;52.114;11.674;2023-09-18T07:13:58;-19824.88;;;21.19
60731;BMP280;46580;52.114;11.674;2023-09-18T07:16:24;-19826.88;;;21.25
60731;BMP280;46580;52.114;11.674;2023-09-18T07:18:50;-19829.16;;;21.33
60731;BMP280;46580;52.114;11.674;2023-09-18T07:21:15;-19830.56;;;21.38
60731;BMP280;46580;52.114;11.674;2023-09-18T07:23:40;-19831.56;;;21.42
60731;BMP280;46580;52.114;11.674;2023-09-18T07:26:06;-19832.25;;;21.44
60731;BMP280;46580;52.114;11.674;2023-09-18T07:28:32;-19836.38;;;21.58
60731;BMP280;46580;52.114;11.674;2023-09-18T07:31:04;-19836.66;;;21.59
60731;BMP280;46580;52.114;11.674;2023-09-18T07:33:30;-19840.34;;;21.72
60731;BMP280;46580;52.114;11.674;2023-09-18T07:35:55;-19844.47;;;21.86
60731;BMP280;46580;52.114;11.674;2023-09-18T07:38:21;-19845.47;;;21.89
60731;BMP280;46580;52.114;11.674;2023-09-18T07:40:46;-19847.16;;;21.95
60731;BMP280;46580;52.114;11.674;2023-09-18T07:43:12;-19848.72;;;22.00
60731;BMP280;46580;52.114;11.674;2023-09-18T07:45:39;-19850.44;;;22.06
60731;BMP280;46580;52.114;11.674;2023-09-18T07:48:08;-19852.28;;;22.13
60731;BMP280;46580;52.114;11.674;2023-09-18T07:50:34;-19849.56;;;22.03
60731;BMP280;46580;52.114;11.674;2023-09-18T07:53:01;-19851.00;;;22.08
60731;BMP280;46580;52.114;11.674;2023-09-18T07:55:27;-19852.69;;;22.14
60731;BMP280;46580;52.114;11.674;2023-09-18T07:57:52;-19851.84;;;22.11
60731;BMP280;46580;52.114;11.674;2023-09-18T08:00:19;-19852.41;;;22.13
60731;BMP280;46580;52.114;11.674;2023-09-18T08:02:48;-19852.13;;;22.12
60731;BMP280;46580;52.114;11.674;2023-09-18T08:05:15;-19849.16;;;22.02
60731;BMP280;46580;52.114;11.674;2023-09-18T08:07:41;-19849.28;;;22.02
60731;BMP280;46580;52.114;11.674;2023-09-18T08:10:07;-19849.56;;;22.03
60731;BMP280;46580;52.114;11.674;2023-09-18T08:12:33;-19850.72;;;22.07
60731;BMP280;46580;52.114;11.674;2023-09-18T08:14:59;-19851.84;;;22.11
60731;BMP280;46580;52.114;11.674;2023-09-18T08:17:25;-19852.56;;;22.14
60731;BMP280;46580;52.114;11.674;2023-09-18T08:19:51;-19852.84;;;22.15
60731;BMP280;46580;52.114;11.674;2023-09-18T08:22:18;-19852.97;;;22.15
60731;BMP280;46580;52.114;11.674;2023-09-18T08:24:45;-19854.13;;;22.19
60731;BMP280;46580;52.114;11.674;2023-09-18T08:27:13;-19855.81;;;22.25
60731;BMP280;46580;52.114;11.674;2023-09-18T08:29:38;-19857.53;;;22.31
60731;BMP280;46580;52.114;11.674;2023-09-18T08:32:04;-19861.22;;;22.43
60731;BMP280;46580;52.114;11.674;2023-09-18T08:34:29;-19866.19;;;22.60
60731;BMP280;46580;52.114;11.674;2023-09-18T08:36:55;-19868.59;;;22.69
60731;BMP280;46580;52.114;11.674;2023-09-18T08:39:20;-19871.41;;;22.78
60731;BMP280;46580;52.114;11.674;2023-09-18T08:41:49;-19868.16;;;22.67
60731;BMP280;46580;52.114;11.674;2023-09-18T08:44:17;-19868.88;;;22.70
60731;BMP280;46580;52.114;11.674;2023-09-18T08:46:44;-19867.88;;;22.66
60731;BMP280;46580;52.114;11.674;2023-09-18T08:49:10;-19865.75;;;22.59
60731;BMP280;46580;52.114;11.674;2023-09-18T08:51:37;-19865.19;;;22.57
60731;BMP280;46580;52.114;11.674;2023-09-18T08:54:04;-19867.59;;;22.65
60731;BMP280;46580;52.114;11.674;2023-09-18T08:56:31;-19870.00;;;22.73
60731;BMP280;46580;52.114;11.674;2023-09-18T08:58:57;-19869.56;;;22.72
60731;BMP280;46580;52.114;11.674;2023-09-18T09:01:25;-19870.56;;;22.75
60731;BMP280;46580;52.114;11.674;2023-09-18T09:03:51;-19872.69;;;22.83
60731;BMP280;46580;52.114;11.674;2023-09-18T09:06:17;-19873.81;;;22.87
60731;BMP280;46580;52.114;11.674;2023-09-18T09:08:42;-19878.50;;;23.03
60731;BMP280;46580;52.114;11.674;2023-09-18T09:11:08;-19882.75;;;23.17
60731;BMP280;46580;52.114;11.674;2023-09-18T09:13:34;-19884.75;;;23.24
60731;BMP280;46580;52.114;11.674;2023-09-18T09:15:59;-19884.75;;;23.24
60731;BMP280;46580;52.114;11.674;2023-09-18T09:18:29;-19885.47;;;23.27
60731;BMP280;46580;52.114;11.674;2023-09-18T09:21:03;-19886.03;;;23.29
60731;BMP280;46580;52.114;11.674;2023-09-18T09:23:45;-19887.59;;;23.34
60731;BMP280;46580;52.114;11.674;2023-09-18T09:26:15;-19886.88;;;23.31
60731;BMP280;46580;52.114;11.674;2023-09-18T09:28:42;-19893.25;;;23.53
60731;BMP280;46580;52.114;11.674;2023-09-18T09:31:08;-19894.94;;;23.59
60731;BMP280;46580;52.114;11.674;2023-09-18T09:33:35;-19897.22;;;23.67
60731;BMP280;46580;52.114;11.674;2023-09-18T09:36:04;-19895.22;;;23.60
60731;BMP280;46580;52.114;11.674;2023-09-18T09:38:31;-19892.13;;;23.49
60731;BMP280;46580;52.114;11.674;2023-09-18T09:40:58;-19886.59;;;23.30
60731;BMP280;46580;52.114;11.674;2023-09-18T09:43:29;-19889.41;;;23.40
60731;BMP280;46580;52.114;11.674;2023-09-18T09:46:00;-19888.44;;;23.37
60731;BMP280;46580;52.114;11.674;2023-09-18T09:48:25;-19890.69;;;23.45
60731;BMP280;46580;52.114;11.674;2023-09-18T09:50:52;-19887.59;;;23.34
60731;BMP280;46580;52.114;11.674;2023-09-18T09:53:46;-19889.84;;;23.42
60731;BMP280;46580;52.114;11.674;2023-09-18T09:56:14;-19889.56;;;23.41
60731;BMP280;46580;52.114;11.674;2023-09-18T09:58:40;-19888.84;;;23.38
60731;BMP280;46580;52.114;11.674;2023-09-18T10:01:11;-19887.28;;;23.33
60731;BMP280;46580;52.114;11.674;2023-09-18T10:03:43;-19883.59;;;23.20
60731;BMP280;46580;52.114;11.674;2023-09-18T10:06:09;-19883.03;;;23.18
60731;BMP280;46580;52.114;11.674;2023-09-18T10:08:36;-19881.19;;;23.12
60731;BMP280;46580;52.114;11.674;2023-09-18T10:11:13;-19882.34;;;23.16
60731;BMP280;46580;52.114;11.674;2023-09-18T10:13:54;-19882.75;;;23.17
60731;BMP280;46580;52.114;11.674;2023-09-18T10:16:22;-19880.91;;;23.11
60731;BMP280;46580;52.114;11.674;2023-09-18T10:19:14;-19880.22;;;23.09
60731;BMP280;46580;52.114;11.674;2023-09-18T10:24:50;-19884.47;;;23.23
60731;BMP280;46580;52.114;11.674;2023-09-18T10:27:20;-19888.16;;;23.36
60731;BMP280;46580;52.114;11.674;2023-09-18T10:29:49;-19891.69;;;23.48
60731;BMP280;46580;52.114;11.674;2023-09-18T10:32:17;-19894.94;;;23.59
60731;BMP280;46580;52.114;11.674;2023-09-18T10:34:46;-19895.09;;;23.60
60731;BMP280;46580;52.114;11.674;2023-09-18T10:37:14;-19898.06;;;23.70
60731;BMP280;46580;52.114;11.674;2023-09-18T10:39:42;-19899.63;;;23.75
60731;BMP280;46580;52.114;11.674;2023-09-18T10:42:09;-19902.59;;;23.85
60731;BMP280;46580;52.114;11.674;2023-09-18T10:44:35;-19907.69;;;24.03
60731;BMP280;46580;52.114;11.674;2023-09-18T10:47:03;-19914.78;;;24.27
60731;BMP280;46580;52.114;11.674;2023-09-18T10:49:31;-19924.53;;;24.61
60731;BMP280;46580;52.114;11.674;2023-09-18T10:51:57;-19928.66;;;24.75
60731;BMP280;46580;52.114;11.674;2023-09-18T10:54:25;-19933.03;;;24.90
60731;BMP280;46580;52.114;11.674;2023-09-18T10:56:51;-19933.19;;;24.91
60731;BMP280;46580;52.114;11.674;2023-09-18T10:59:17;-19932.47;;;24.88
60731;BMP280;46580;52.114;11.674;2023-09-18T11:01:44;-19932.19;;;24.87
60731;BMP280;46580;52.114;11.674;2023-09-18T11:04:10;-19933.03;;;24.90
60731;BMP280;46580;52.114;11.674;2023-09-18T11:09:24;-19933.75;;;24.93
60731;BMP280;46580;52.114;11.674;2023-09-18T11:14:45;-19798.41;;;24.96
60731;BMP280;46580;52.114;11.674;2023-09-18T11:17:31;-19620.31;;;24.99
60731;BMP280;46580;52.114;11.674;2023-09-18T11:20:25;-19933.03;;;24.90
60731;BMP280;46580;52.114;11.674;2023-09-18T11:22:58;-19930.34;;;24.81
60731;BMP280;46580;52.114;11.674;2023-09-18T11:25:42;-19931.19;;;24.84
60731;BMP280;46580;52.114;11.674;2023-09-18T11:28:13;-19933.19;;;24.91
60731;BMP280;46580;52.114;11.674;2023-09-18T11:30:48;-19813.81;;;24.97
60731;BMP280;46580;52.114;11.674;2023-09-18T11:33:14;-19931.19;;;24.84
60731;BMP280;46580;52.114;11.674;2023-09-18T11:35:51;-19932.63;;;24.89
60731;BMP280;46580;52.114;11.674;2023-09-18T11:38:17;-19931.19;;;24.84
60731;BMP280;46580;52.114;11.674;2023-09-18T11:40:43;-19931.06;;;24.83
60731;BMP280;46580;52.114;11.674;2023-09-18T11:43:28;-19927.94;;;24.73
60731;BMP280;46580;52.114;11.674;2023-09-18T11:45:59;-19929.50;;;24.78
60731;BMP280;46580;52.114;11.674;2023-09-18T11:48:27;-19931.47;;;24.85
60731;BMP280;46580;52.114;11.674;2023-09-18T11:50:56;-19930.63;;;24.82
60731;BMP280;46580;52.114;11.674;2023-09-18T11:53:23;-19931.34;;;24.84
60731;BMP280;46580;52.114;11.674;2023-09-18T11:55:49;-19928.66;;;24.75
60731;BMP280;46580;52.114;11.674;2023-09-18T11:58:14;-19933.59;;;24.92
60731;BMP280;46580;52.114;11.674;2023-09-18T12:00:40;-18959.75;;;25.10
60731;BMP280;46580;52.114;11.674;2023-09-18T12:03:20;-18660.22;;;25.13
60731;BMP280;46580;52.114;11.674;2023-09-18T12:06:00;-17849.78;;;25.22
60731;BMP280;46580;52.114;11.674;2023-09-18T12:08:26;-16501.78;;;25.36
60731;BMP280;46580;52.114;11.674;2023-09-18T12:10:55;-16231.94;;;25.38
60731;BMP280;46580;52.114;11.674;2023-09-18T12:13:21;-14631.72;;;25.50
60731;BMP280;46580;52.114;11.674;2023-09-18T12:15:59;-10585.41;;;25.75
60731;BMP280;46580;52.114;11.674;2023-09-18T12:18:25;-9276.03;;;25.84
60731;BMP280;46580;52.114;11.674;2023-09-18T12:20:54;-8302.84;;;25.90
60731;BMP280;46580;52.114;11.674;2023-09-18T12:23:21;-7328.97;;;25.95
60731;BMP280;46580;52.114;11.674;2023-09-18T12:25:56;-7329.19;;;25.97
60731;BMP280;46580;52.114;11.674;2023-09-18T12:28:22;-7329.06;;;25.96
60731;BMP280;46580;52.114;11.674;2023-09-18T12:30:48;-7329.13;;;25.97
60731;BMP280;46580;52.114;11.674;2023-09-18T12:33:16;-7004.47;;;25.99
60731;BMP280;46580;52.114;11.674;2023-09-18T12:35:42;-7978.41;;;25.93
60731;BMP280;46580;52.114;11.674;2023-09-18T12:38:17;-8951.50;;;25.84
60731;BMP280;46580;52.114;11.674;2023-09-18T12:40:52;-8951.78;;;25.87
60731;BMP280;46580;52.114;11.674;2023-09-18T12:43:18;-8627.25;;;25.88
60731;BMP280;46580;52.114;11.674;2023-09-18T12:45:45;-9275.88;;;25.82
60731;BMP280;46580;52.114;11.674;2023-09-18T12:48:11;-7978.31;;;25.92
60731;BMP280;46580;52.114;11.674;2023-09-18T12:50:37;-8951.75;;;25.86
60731;BMP280;46580;52.114;11.674;2023-09-18T12:55:36;-10248.75;;;25.78
60731;BMP280;46580;52.114;11.674;2023-09-18T12:58:02;-10248.69;;;25.77
60731;BMP280;46580;52.114;11.674;2023-09-18T13:00:33;-10005.63;;;25.79
60731;BMP280;46580;52.114;11.674;2023-09-18T13:02:58;-7328.97;;;25.95
60731;BMP280;46580;52.114;11.674;2023-09-18T13:05:25;-4729.84;;;26.15
60731;BMP280;46580;52.114;11.674;2023-09-18T13:08:02;-4404.69;;;26.18
60731;BMP280;46580;52.114;11.674;2023-09-18T13:10:28;-2777.72;;;26.29
60731;BMP280;46580;52.114;11.674;2023-09-18T13:12:54;-823.34;;;26.43
60731;BMP280;46580;52.114;11.674;2023-09-18T13:15:31;-1149.25;;;26.40
60731;BMP280;46580;52.114;11.674;2023-09-18T13:18:08;-2452.16;;;26.30
60731;BMP280;46580;52.114;11.674;2023-09-18T13:20:34;-2126.53;;;26.33
60731;BMP280;46580;52.114;11.674;2023-09-18T13:23:00;-1149.25;;;26.40
60731;BMP280;46580;52.114;11.674;2023-09-18T13:25:39;-823.38;;;26.41
60731;BMP280;46580;52.114;11.674;2023-09-18T13:28:08;-1475.06;;;26.38
60731;BMP280;46580;52.114;11.674;2023-09-18T13:30:36;-1800.81;;;26.35
60731;BMP280;46580;52.114;11.674;2023-09-18T13:33:11;-3428.66;;;26.24
60731;BMP280;46580;52.114;11.674;2023-09-18T13:35:54;-3103.28;;;26.28
60731;BMP280;46580;52.114;11.674;2023-09-18T13:38:21;-4729.84;;;26.15
60731;BMP280;46580;52.114;11.674;2023-09-18T13:40:48;-6029.97;;;26.06
60731;BMP280;46580;52.114;11.674;2023-09-18T13:43:14;-8302.94;;;25.91
60731;BMP280;46580;52.114;11.674;2023-09-18T13:45:41;-9275.75;;;25.81
60731;BMP280;46580;52.114;11.674;2023-09-18T13:48:07;-11838.38;;;25.68
60731;BMP280;46580;52.114;11.674;2023-09-18T13:50:34;-13591.03;;;25.58
60731;BMP280;46580;52.114;11.674;2023-09-18T13:53:01;-13906.75;;;25.55
60731;BMP280;46580;52.114;11.674;2023-09-18T13:55:26;-15772.94;;;25.42
60731;BMP280;46580;52.114;11.674;2023-09-18T13:57:51;-17003.38;;;25.31
60731;BMP280;46580;52.114;11.674;2023-09-18T14:00:19;-18474.09;;;25.15
60731;BMP280;46580;52.114;11.674;2023-09-18T14:02:45;-19931.63;;;24.85